Terminal Aerodrome Forecast
Issued by NWS Des Moines, IA

Home | Current Version | Previous Version | Text Only | Print | Product List | Glossary On
Versions: 1 2 3 4 5 6 7 8 9 10 11 12 13 14 15 16 17 18 19 20 21 22 23 24 25 26 27 28 29 30 31 32 33 34 35 36 37 38 39 40
000
FTUS43 KDMX 281429 AAA
TAFALO
TAF AMD
KALO 281429Z 2814/2912 14014KT 1/2SM FZFG OVC002
      TEMPO 2815/2816 4SM BR OVC009
     FM281600 14014G22KT 5SM BR BKN012
     FM282100 15017G24KT 6SM BR BKN025
     FM282300 14016KT P6SM SCT025 BKN030
     FM290300 14008KT 5SM BR BKN009 OVC012
     FM290700 33018G26KT 5SM BR OVC012=

USA.gov is the U.S. government's official web portal to all federal, state and local government web resources and services.